KBNA/BNA METAR and TAF weather

Enter ICAO airport designator
Station Type Date Time Source
KBNA METAR 2021/04/13 21:53 UTC NOAA

KBNA 132153Z 01005KT 10SM BKN100 BKN250 23/09 A3005 RMK AO2 SLP173 T02330094


Station Type Date Time Source
KBNA Decoded METAR 2021/04/13 21:53 UTC NOAA

NASHVILLE INTERNATIONAL AIRPORT, TN, United States (KBNA) 36-07N 086-41W 210M
Apr 13, 2021 - 05:53 PM EDT / 2021.04.13 2153 UTC
Wind: from the N (010 degrees) at 6 MPH (5 KT):0
Visibility: 10 mile(s):0
Sky conditions: mostly cloudy
Temperature: 73.9 F (23.3 C)
Dew Point: 48.9 F (9.4 C)
Relative Humidity: 41%
Pressure (altimeter): 30.05 in. Hg (1017 hPa)
ob: KBNA 132153Z 01005KT 10SM BKN100 BKN250 23/09 A3005 RMK AO2 SLP173 T02330094
cycle: 22

Station Type Date Time Source
KBNA TAF 2021/04/13 18:42 UTC NOAA

TAF KBNA 131741Z 1318/1418 03006KT P6SM VCSH BKN200 BKN250
FM140400 36006KT P6SM OVC050
FM141600 01009KT P6SM -RA OVC050

Example: see airport list